sensor_id;sensor_type;location;lat;lon;timestamp;temperature;humidity
25973;DHT22;13765;51.166;4.466;2023-02-15T00:01:42;4.20;99.90
25973;DHT22;13765;51.166;4.466;2023-02-15T00:04:09;4.10;99.90
25973;DHT22;13765;51.166;4.466;2023-02-15T00:06:38;4.10;99.90
25973;DHT22;13765;51.166;4.466;2023-02-15T00:09:06;4.10;99.90
25973;DHT22;13765;51.166;4.466;2023-02-15T00:11:31;4.00;99.90
25973;DHT22;13765;51.166;4.466;2023-02-15T00:14:10;4.00;99.90
25973;DHT22;13765;51.166;4.466;2023-02-15T00:16:40;4.00;99.90
25973;DHT22;13765;51.166;4.466;2023-02-15T00:19:06;4.00;99.90
25973;DHT22;13765;51.166;4.466;2023-02-15T00:21:35;3.90;99.90
25973;DHT22;13765;51.166;4.466;2023-02-15T00:24:06;3.90;99.90
25973;DHT22;13765;51.166;4.466;2023-02-15T00:26:33;3.80;99.90
25973;DHT22;13765;51.166;4.466;2023-02-15T00:28:59;3.80;99.90
25973;DHT22;13765;51.166;4.466;2023-02-15T00:31:26;3.80;99.90
25973;DHT22;13765;51.166;4.466;2023-02-15T00:33:56;3.80;99.90
25973;DHT22;13765;51.166;4.466;2023-02-15T00:36:32;3.80;99.90
25973;DHT22;13765;51.166;4.466;2023-02-15T00:38:58;3.80;99.90
25973;DHT22;13765;51.166;4.466;2023-02-15T00:41:24;3.90;99.90
25973;DHT22;13765;51.166;4.466;2023-02-15T00:43:49;3.80;99.90
25973;DHT22;13765;51.166;4.466;2023-02-15T00:46:15;3.80;99.90
25973;DHT22;13765;51.166;4.466;2023-02-15T00:48:41;3.70;99.90
25973;DHT22;13765;51.166;4.466;2023-02-15T00:51:06;3.70;99.90
25973;DHT22;13765;51.166;4.466;2023-02-15T00:53:32;3.70;99.90
25973;DHT22;13765;51.166;4.466;2023-02-15T00:55:58;3.70;99.90
25973;DHT22;13765;51.166;4.466;2023-02-15T00:58:24;3.70;99.90
25973;DHT22;13765;51.166;4.466;2023-02-15T01:00:49;3.70;99.90
25973;DHT22;13765;51.166;4.466;2023-02-15T01:03:17;3.70;99.90
25973;DHT22;13765;51.166;4.466;2023-02-15T01:05:43;3.60;99.90
25973;DHT22;13765;51.166;4.466;2023-02-15T01:08:09;3.60;99.90
25973;DHT22;13765;51.166;4.466;2023-02-15T01:10:35;3.60;99.90
25973;DHT22;13765;51.166;4.466;2023-02-15T01:13:02;3.60;99.90
25973;DHT22;13765;51.166;4.466;2023-02-15T01:15:30;3.60;99.90
25973;DHT22;13765;51.166;4.466;2023-02-15T01:17:56;3.60;99.90
25973;DHT22;13765;51.166;4.466;2023-02-15T01:20:26;3.60;99.90
25973;DHT22;13765;51.166;4.466;2023-02-15T01:22:53;3.50;99.90
25973;DHT22;13765;51.166;4.466;2023-02-15T01:25:21;3.50;99.90
25973;DHT22;13765;51.166;4.466;2023-02-15T01:27:49;3.50;99.90
25973;DHT22;13765;51.166;4.466;2023-02-15T01:30:15;3.50;99.90
25973;DHT22;13765;51.166;4.466;2023-02-15T01:32:42;3.50;99.90
25973;DHT22;13765;51.166;4.466;2023-02-15T01:35:11;3.50;99.90
25973;DHT22;13765;51.166;4.466;2023-02-15T01:37:36;3.50;99.90
25973;DHT22;13765;51.166;4.466;2023-02-15T01:40:06;3.40;99.90
25973;DHT22;13765;51.166;4.466;2023-02-15T01:42:33;3.40;99.90
25973;DHT22;13765;51.166;4.466;2023-02-15T01:45:04;3.40;99.90
25973;DHT22;13765;51.166;4.466;2023-02-15T01:47:38;3.40;99.90
25973;DHT22;13765;51.166;4.466;2023-02-15T01:50:21;3.40;99.90
25973;DHT22;13765;51.166;4.466;2023-02-15T01:55:30;3.30;99.90
25973;DHT22;13765;51.166;4.466;2023-02-15T01:57:57;3.30;99.90
25973;DHT22;13765;51.166;4.466;2023-02-15T02:00:24;3.30;99.90
25973;DHT22;13765;51.166;4.466;2023-02-15T02:02:52;3.20;99.90
25973;DHT22;13765;51.166;4.466;2023-02-15T02:05:21;3.30;99.90
25973;DHT22;13765;51.166;4.466;2023-02-15T02:07:51;3.30;99.90
25973;DHT22;13765;51.166;4.466;2023-02-15T02:10:22;3.30;99.90
25973;DHT22;13765;51.166;4.466;2023-02-15T02:12:50;3.20;99.90
25973;DHT22;13765;51.166;4.466;2023-02-15T02:15:17;3.20;99.90
25973;DHT22;13765;51.166;4.466;2023-02-15T02:18:08;3.20;99.90
25973;DHT22;13765;51.166;4.466;2023-02-15T02:29:19;3.10;99.90
25973;DHT22;13765;51.166;4.466;2023-02-15T02:34:45;3.10;99.90
25973;DHT22;13765;51.166;4.466;2023-02-15T02:37:43;3.10;99.90
25973;DHT22;13765;51.166;4.466;2023-02-15T02:42:59;2.90;99.90
25973;DHT22;13765;51.166;4.466;2023-02-15T02:45:29;2.90;99.90
25973;DHT22;13765;51.166;4.466;2023-02-15T02:48:08;2.90;99.90
25973;DHT22;13765;51.166;4.466;2023-02-15T02:50:34;3.00;99.90
25973;DHT22;13765;51.166;4.466;2023-02-15T02:53:00;3.00;99.90
25973;DHT22;13765;51.166;4.466;2023-02-15T02:58:20;2.90;99.90
25973;DHT22;13765;51.166;4.466;2023-02-15T03:05:47;3.00;99.90
25973;DHT22;13765;51.166;4.466;2023-02-15T03:08:16;3.10;99.90
25973;DHT22;13765;51.166;4.466;2023-02-15T03:10:48;3.10;99.90
25973;DHT22;13765;51.166;4.466;2023-02-15T03:13:15;3.00;99.90
25973;DHT22;13765;51.166;4.466;2023-02-15T03:15:42;3.00;99.90
25973;DHT22;13765;51.166;4.466;2023-02-15T03:18:35;2.90;99.90
25973;DHT22;13765;51.166;4.466;2023-02-15T03:21:03;2.90;99.90
25973;DHT22;13765;51.166;4.466;2023-02-15T03:23:34;2.90;99.90
25973;DHT22;13765;51.166;4.466;2023-02-15T03:26:08;2.90;99.90
25973;DHT22;13765;51.166;4.466;2023-02-15T03:28:38;2.90;99.90
25973;DHT22;13765;51.166;4.466;2023-02-15T03:31:08;2.90;99.90
25973;DHT22;13765;51.166;4.466;2023-02-15T03:33:38;2.80;99.90
25973;DHT22;13765;51.166;4.466;2023-02-15T03:42:10;2.80;99.90
25973;DHT22;13765;51.166;4.466;2023-02-15T03:47:44;2.80;99.90
25973;DHT22;13765;51.166;4.466;2023-02-15T03:50:18;2.80;99.90
25973;DHT22;13765;51.166;4.466;2023-02-15T03:53:09;2.80;99.90
25973;DHT22;13765;51.166;4.466;2023-02-15T03:55:36;2.70;99.90
25973;DHT22;13765;51.166;4.466;2023-02-15T03:58:07;2.80;99.90
25973;DHT22;13765;51.166;4.466;2023-02-15T04:01:16;2.80;99.90
25973;DHT22;13765;51.166;4.466;2023-02-15T04:04:08;2.80;99.90
25973;DHT22;13765;51.166;4.466;2023-02-15T04:06:39;2.70;99.90
25973;DHT22;13765;51.166;4.466;2023-02-15T04:09:05;2.70;99.90
25973;DHT22;13765;51.166;4.466;2023-02-15T04:11:49;2.70;99.90
25973;DHT22;13765;51.166;4.466;2023-02-15T04:14:14;2.70;99.90
25973;DHT22;13765;51.166;4.466;2023-02-15T04:16:58;2.70;99.90
25973;DHT22;13765;51.166;4.466;2023-02-15T04:19:24;2.70;99.90
25973;DHT22;13765;51.166;4.466;2023-02-15T04:22:08;2.70;99.90
25973;DHT22;13765;51.166;4.466;2023-02-15T04:24:52;2.60;99.90
25973;DHT22;13765;51.166;4.466;2023-02-15T04:27:36;2.70;99.90
25973;DHT22;13765;51.166;4.466;2023-02-15T04:30:08;2.70;99.90
25973;DHT22;13765;51.166;4.466;2023-02-15T04:32:37;2.70;99.90
25973;DHT22;13765;51.166;4.466;2023-02-15T04:35:05;2.60;99.90
25973;DHT22;13765;51.166;4.466;2023-02-15T04:37:32;2.60;99.90
25973;DHT22;13765;51.166;4.466;2023-02-15T04:39:58;2.60;99.90
25973;DHT22;13765;51.166;4.466;2023-02-15T04:42:24;2.50;99.90
25973;DHT22;13765;51.166;4.466;2023-02-15T04:44:53;2.50;99.90
25973;DHT22;13765;51.166;4.466;2023-02-15T04:47:21;2.50;99.90
25973;DHT22;13765;51.166;4.466;2023-02-15T04:49:49;2.50;99.90
25973;DHT22;13765;51.166;4.466;2023-02-15T04:52:15;2.50;99.90
25973;DHT22;13765;51.166;4.466;2023-02-15T04:54:42;2.50;99.90
25973;DHT22;13765;51.166;4.466;2023-02-15T04:57:08;2.40;99.90
25973;DHT22;13765;51.166;4.466;2023-02-15T04:59:38;2.40;99.90
25973;DHT22;13765;51.166;4.466;2023-02-15T05:02:03;2.40;99.90
25973;DHT22;13765;51.166;4.466;2023-02-15T05:04:31;2.40;99.90
25973;DHT22;13765;51.166;4.466;2023-02-15T05:06:57;2.40;99.90
25973;DHT22;13765;51.166;4.466;2023-02-15T05:09:22;2.30;99.90
25973;DHT22;13765;51.166;4.466;2023-02-15T05:11:51;2.30;99.90
25973;DHT22;13765;51.166;4.466;2023-02-15T05:14:16;2.30;99.90
25973;DHT22;13765;51.166;4.466;2023-02-15T05:16:42;2.20;99.90
25973;DHT22;13765;51.166;4.466;2023-02-15T05:19:10;2.30;99.90
25973;DHT22;13765;51.166;4.466;2023-02-15T05:21:38;2.20;99.90
25973;DHT22;13765;51.166;4.466;2023-02-15T05:24:06;2.20;99.90
25973;DHT22;13765;51.166;4.466;2023-02-15T05:26:51;2.30;99.90
25973;DHT22;13765;51.166;4.466;2023-02-15T05:29:35;2.30;99.90
25973;DHT22;13765;51.166;4.466;2023-02-15T05:32:03;2.30;99.90
25973;DHT22;13765;51.166;4.466;2023-02-15T05:34:31;2.20;99.90
25973;DHT22;13765;51.166;4.466;2023-02-15T05:37:01;2.30;99.90
25973;DHT22;13765;51.166;4.466;2023-02-15T05:39:29;2.20;99.90
25973;DHT22;13765;51.166;4.466;2023-02-15T05:41:58;2.30;99.90
25973;DHT22;13765;51.166;4.466;2023-02-15T05:44:25;2.20;99.90
25973;DHT22;13765;51.166;4.466;2023-02-15T05:46:50;2.30;99.90
25973;DHT22;13765;51.166;4.466;2023-02-15T05:49:16;2.20;99.90
25973;DHT22;13765;51.166;4.466;2023-02-15T05:51:42;2.20;99.90
25973;DHT22;13765;51.166;4.466;2023-02-15T05:54:07;2.20;99.90
25973;DHT22;13765;51.166;4.466;2023-02-15T05:56:35;2.10;99.90
25973;DHT22;13765;51.166;4.466;2023-02-15T05:59:03;2.10;99.90
25973;DHT22;13765;51.166;4.466;2023-02-15T06:01:31;2.10;99.90
25973;DHT22;13765;51.166;4.466;2023-02-15T06:03:56;2.10;99.90
25973;DHT22;13765;51.166;4.466;2023-02-15T06:06:22;2.10;99.90
25973;DHT22;13765;51.166;4.466;2023-02-15T06:08:48;2.10;99.90
25973;DHT22;13765;51.166;4.466;2023-02-15T06:11:16;2.00;99.90
25973;DHT22;13765;51.166;4.466;2023-02-15T06:13:44;2.00;99.90
25973;DHT22;13765;51.166;4.466;2023-02-15T06:16:12;2.00;99.90
25973;DHT22;13765;51.166;4.466;2023-02-15T06:18:38;2.00;99.90
25973;DHT22;13765;51.166;4.466;2023-02-15T06:21:03;2.00;99.90
25973;DHT22;13765;51.166;4.466;2023-02-15T06:23:29;2.00;99.90
25973;DHT22;13765;51.166;4.466;2023-02-15T06:25:55;2.10;99.90
25973;DHT22;13765;51.166;4.466;2023-02-15T06:28:20;2.10;99.90
25973;DHT22;13765;51.166;4.466;2023-02-15T06:30:50;2.10;99.90
25973;DHT22;13765;51.166;4.466;2023-02-15T06:33:19;2.10;99.90
25973;DHT22;13765;51.166;4.466;2023-02-15T06:35:45;2.00;99.90
25973;DHT22;13765;51.166;4.466;2023-02-15T06:38:11;2.00;99.90
25973;DHT22;13765;51.166;4.466;2023-02-15T06:40:37;2.00;99.90
25973;DHT22;13765;51.166;4.466;2023-02-15T06:43:03;2.00;99.90
25973;DHT22;13765;51.166;4.466;2023-02-15T06:45:28;2.00;99.90
25973;DHT22;13765;51.166;4.466;2023-02-15T06:47:54;2.00;99.90
25973;DHT22;13765;51.166;4.466;2023-02-15T06:50:20;2.00;99.90
25973;DHT22;13765;51.166;4.466;2023-02-15T06:52:45;2.00;99.90
25973;DHT22;13765;51.166;4.466;2023-02-15T06:55:13;2.00;99.90
25973;DHT22;13765;51.166;4.466;2023-02-15T06:57:41;2.10;99.90
25973;DHT22;13765;51.166;4.466;2023-02-15T07:00:09;2.20;99.90
25973;DHT22;13765;51.166;4.466;2023-02-15T07:02:35;2.10;99.90
25973;DHT22;13765;51.166;4.466;2023-02-15T07:05:00;2.20;99.90
25973;DHT22;13765;51.166;4.466;2023-02-15T07:07:30;2.30;99.90
25973;DHT22;13765;51.166;4.466;2023-02-15T07:09:58;2.20;99.90
25973;DHT22;13765;51.166;4.466;2023-02-15T07:12:25;2.30;99.90
25973;DHT22;13765;51.166;4.466;2023-02-15T07:15:11;2.20;99.90
25973;DHT22;13765;51.166;4.466;2023-02-15T07:17:37;2.30;99.90
25973;DHT22;13765;51.166;4.466;2023-02-15T07:20:06;2.30;99.90
25973;DHT22;13765;51.166;4.466;2023-02-15T07:22:33;2.40;99.90
25973;DHT22;13765;51.166;4.466;2023-02-15T07:25:05;2.50;99.90
25973;DHT22;13765;51.166;4.466;2023-02-15T07:27:32;2.70;99.90
25973;DHT22;13765;51.166;4.466;2023-02-15T07:29:58;2.70;99.90
25973;DHT22;13765;51.166;4.466;2023-02-15T07:32:23;2.90;99.90
25973;DHT22;13765;51.166;4.466;2023-02-15T07:34:49;3.00;99.90
25973;DHT22;13765;51.166;4.466;2023-02-15T07:37:15;3.10;99.90
25973;DHT22;13765;51.166;4.466;2023-02-15T07:39:40;3.10;99.90
25973;DHT22;13765;51.166;4.466;2023-02-15T07:42:11;3.20;99.90
25973;DHT22;13765;51.166;4.466;2023-02-15T07:44:37;3.10;99.90
25973;DHT22;13765;51.166;4.466;2023-02-15T07:47:02;3.10;99.90
25973;DHT22;13765;51.166;4.466;2023-02-15T07:49:28;3.20;99.90
25973;DHT22;13765;51.166;4.466;2023-02-15T07:51:54;3.30;99.90
25973;DHT22;13765;51.166;4.466;2023-02-15T07:54:19;3.30;99.90
25973;DHT22;13765;51.166;4.466;2023-02-15T07:56:45;3.50;99.90
25973;DHT22;13765;51.166;4.466;2023-02-15T07:59:11;3.40;99.90
25973;DHT22;13765;51.166;4.466;2023-02-15T08:01:38;3.60;99.90
25973;DHT22;13765;51.166;4.466;2023-02-15T08:04:05;3.70;99.90
25973;DHT22;13765;51.166;4.466;2023-02-15T08:06:34;3.90;99.90
25973;DHT22;13765;51.166;4.466;2023-02-15T08:09:07;4.00;99.90
25973;DHT22;13765;51.166;4.466;2023-02-15T08:11:35;4.10;99.90
25973;DHT22;13765;51.166;4.466;2023-02-15T08:19:04;4.10;99.90
25973;DHT22;13765;51.166;4.466;2023-02-15T08:21:37;4.20;99.90
25973;DHT22;13765;51.166;4.466;2023-02-15T08:24:03;4.20;99.90
25973;DHT22;13765;51.166;4.466;2023-02-15T08:26:30;4.20;99.90
25973;DHT22;13765;51.166;4.466;2023-02-15T08:28:57;4.30;99.90
25973;DHT22;13765;51.166;4.466;2023-02-15T08:31:25;4.40;99.90
25973;DHT22;13765;51.166;4.466;2023-02-15T08:33:53;4.30;99.90
25973;DHT22;13765;51.166;4.466;2023-02-15T08:36:23;4.30;99.90
25973;DHT22;13765;51.166;4.466;2023-02-15T08:38:49;4.30;99.90
25973;DHT22;13765;51.166;4.466;2023-02-15T08:41:22;4.40;99.90
25973;DHT22;13765;51.166;4.466;2023-02-15T08:43:52;4.50;99.90
25973;DHT22;13765;51.166;4.466;2023-02-15T08:46:19;4.50;99.90
25973;DHT22;13765;51.166;4.466;2023-02-15T08:48:45;4.70;99.90
25973;DHT22;13765;51.166;4.466;2023-02-15T08:51:19;4.70;99.90
25973;DHT22;13765;51.166;4.466;2023-02-15T08:53:50;4.80;99.90
25973;DHT22;13765;51.166;4.466;2023-02-15T08:56:18;4.80;99.90
25973;DHT22;13765;51.166;4.466;2023-02-15T08:58:44;4.90;99.90
25973;DHT22;13765;51.166;4.466;2023-02-15T09:01:11;5.10;99.90
25973;DHT22;13765;51.166;4.466;2023-02-15T09:03:38;5.30;99.90
25973;DHT22;13765;51.166;4.466;2023-02-15T09:06:04;5.40;99.90
25973;DHT22;13765;51.166;4.466;2023-02-15T09:08:32;5.50;99.90
25973;DHT22;13765;51.166;4.466;2023-02-15T09:11:14;5.70;99.90
25973;DHT22;13765;51.166;4.466;2023-02-15T09:13:48;5.80;99.90
25973;DHT22;13765;51.166;4.466;2023-02-15T09:16:14;5.90;99.90
25973;DHT22;13765;51.166;4.466;2023-02-15T09:18:42;6.00;99.90
25973;DHT22;13765;51.166;4.466;2023-02-15T09:21:11;5.90;99.90
25973;DHT22;13765;51.166;4.466;2023-02-15T09:23:42;5.90;99.90
25973;DHT22;13765;51.166;4.466;2023-02-15T09:26:12;6.00;99.90
25973;DHT22;13765;51.166;4.466;2023-02-15T09:28:39;6.20;99.90
25973;DHT22;13765;51.166;4.466;2023-02-15T09:33:35;6.40;99.90
25973;DHT22;13765;51.166;4.466;2023-02-15T09:36:03;6.60;99.90
25973;DHT22;13765;51.166;4.466;2023-02-15T09:38:34;6.80;99.90
25973;DHT22;13765;51.166;4.466;2023-02-15T09:57:43;7.90;99.90
25973;DHT22;13765;51.166;4.466;2023-02-15T10:11:19;8.50;99.90
25973;DHT22;13765;51.166;4.466;2023-02-15T10:28:50;9.20;99.90
25973;DHT22;13765;51.166;4.466;2023-02-15T10:31:27;9.20;99.90
25973;DHT22;13765;51.166;4.466;2023-02-15T10:34:02;9.20;99.90
25973;DHT22;13765;51.166;4.466;2023-02-15T11:06:56;10.40;99.90
25973;DHT22;13765;51.166;4.466;2023-02-15T11:09:33;10.30;99.90
25973;DHT22;13765;51.166;4.466;2023-02-15T11:12:10;10.30;99.90
25973;DHT22;13765;51.166;4.466;2023-02-15T11:17:12;10.50;99.90
25973;DHT22;13765;51.166;4.466;2023-02-15T11:22:13;10.80;99.90
25973;DHT22;13765;51.166;4.466;2023-02-15T11:24:43;11.00;99.90
25973;DHT22;13765;51.166;4.466;2023-02-15T11:32:30;11.10;99.90
25973;DHT22;13765;51.166;4.466;2023-02-15T11:35:01;11.10;99.90
25973;DHT22;13765;51.166;4.466;2023-02-15T11:40:12;11.10;99.90
25973;DHT22;13765;51.166;4.466;2023-02-15T11:42:41;11.10;99.90
25973;DHT22;13765;51.166;4.466;2023-02-15T11:45:27;11.00;99.90
25973;DHT22;13765;51.166;4.466;2023-02-15T11:47:54;11.10;99.90
25973;DHT22;13765;51.166;4.466;2023-02-15T11:50:31;11.30;99.90
25973;DHT22;13765;51.166;4.466;2023-02-15T11:53:02;11.30;99.90
25973;DHT22;13765;51.166;4.466;2023-02-15T11:55:29;11.50;99.90
25973;DHT22;13765;51.166;4.466;2023-02-15T11:58:05;11.60;99.90
25973;DHT22;13765;51.166;4.466;2023-02-15T12:00:46;11.70;99.90
25973;DHT22;13765;51.166;4.466;2023-02-15T12:03:17;11.80;99.90
25973;DHT22;13765;51.166;4.466;2023-02-15T12:05:46;11.90;99.90
25973;DHT22;13765;51.166;4.466;2023-02-15T12:08:19;12.00;99.90
25973;DHT22;13765;51.166;4.466;2023-02-15T12:11:02;12.20;99.90
25973;DHT22;13765;51.166;4.466;2023-02-15T12:13:33;12.30;99.90
25973;DHT22;13765;51.166;4.466;2023-02-15T12:16:06;12.20;99.90
25973;DHT22;13765;51.166;4.466;2023-02-15T12:18:43;12.30;99.90
25973;DHT22;13765;51.166;4.466;2023-02-15T12:21:14;12.20;99.90
25973;DHT22;13765;51.166;4.466;2023-02-15T12:24:10;12.10;99.90
25973;DHT22;13765;51.166;4.466;2023-02-15T12:26:43;12.20;99.90
25973;DHT22;13765;51.166;4.466;2023-02-15T12:29:22;12.30;99.90
25973;DHT22;13765;51.166;4.466;2023-02-15T12:31:51;12.40;99.90
25973;DHT22;13765;51.166;4.466;2023-02-15T12:34:35;12.60;99.90
25973;DHT22;13765;51.166;4.466;2023-02-15T12:37:14;12.60;99.90
25973;DHT22;13765;51.166;4.466;2023-02-15T12:39:57;12.70;99.90
25973;DHT22;13765;51.166;4.466;2023-02-15T12:42:24;12.70;99.90
25973;DHT22;13765;51.166;4.466;2023-02-15T12:47:31;12.70;99.90
25973;DHT22;13765;51.166;4.466;2023-02-15T12:50:15;12.80;99.90
25973;DHT22;13765;51.166;4.466;2023-02-15T12:52:51;12.90;99.90
25973;DHT22;13765;51.166;4.466;2023-02-15T12:55:25;12.90;99.90
25973;DHT22;13765;51.166;4.466;2023-02-15T13:00:39;12.90;99.90
25973;DHT22;13765;51.166;4.466;2023-02-15T13:03:14;12.70;99.90
25973;DHT22;13765;51.166;4.466;2023-02-15T13:05:45;12.50;99.90
25973;DHT22;13765;51.166;4.466;2023-02-15T13:08:32;12.30;99.90
25973;DHT22;13765;51.166;4.466;2023-02-15T13:11:06;12.40;99.90
25973;DHT22;13765;51.166;4.466;2023-02-15T13:13:34;12.60;99.90
25973;DHT22;13765;51.166;4.466;2023-02-15T13:16:12;12.70;99.90
25973;DHT22;13765;51.166;4.466;2023-02-15T13:18:53;12.80;99.90
25973;DHT22;13765;51.166;4.466;2023-02-15T13:21:22;12.90;99.90
25973;DHT22;13765;51.166;4.466;2023-02-15T13:23:56;12.90;99.90
25973;DHT22;13765;51.166;4.466;2023-02-15T13:26:28;12.90;99.90
25973;DHT22;13765;51.166;4.466;2023-02-15T13:29:10;12.80;99.90
25973;DHT22;13765;51.166;4.466;2023-02-15T13:31:38;12.60;99.90
25973;DHT22;13765;51.166;4.466;2023-02-15T13:34:12;12.60;99.90
25973;DHT22;13765;51.166;4.466;2023-02-15T13:36:51;12.70;99.90
25973;DHT22;13765;51.166;4.466;2023-02-15T13:42:05;12.80;99.90
25973;DHT22;13765;51.166;4.466;2023-02-15T13:50:52;12.90;99.90
25973;DHT22;13765;51.166;4.466;2023-02-15T13:56:02;13.00;99.90
25973;DHT22;13765;51.166;4.466;2023-02-15T13:58:56;13.10;99.90
25973;DHT22;13765;51.166;4.466;2023-02-15T14:21:07;13.30;99.90
25973;DHT22;13765;51.166;4.466;2023-02-15T14:26:52;13.20;99.90
25973;DHT22;13765;51.166;4.466;2023-02-15T14:29:41;13.10;99.90
25973;DHT22;13765;51.166;4.466;2023-02-15T14:32:20;13.20;99.90
25973;DHT22;13765;51.166;4.466;2023-02-15T14:34:52;13.10;99.90
25973;DHT22;13765;51.166;4.466;2023-02-15T14:37:28;13.10;99.90
25973;DHT22;13765;51.166;4.466;2023-02-15T14:48:10;13.10;99.90
25973;DHT22;13765;51.166;4.466;2023-02-15T14:50:42;13.30;99.90
25973;DHT22;13765;51.166;4.466;2023-02-15T14:53:15;13.30;99.90
25973;DHT22;13765;51.166;4.466;2023-02-15T14:55:41;13.30;99.90
25973;DHT22;13765;51.166;4.466;2023-02-15T14:58:12;13.30;99.90
25973;DHT22;13765;51.166;4.466;2023-02-15T15:00:40;13.30;99.90
25973;DHT22;13765;51.166;4.466;2023-02-15T15:03:21;13.30;99.90
25973;DHT22;13765;51.166;4.466;2023-02-15T15:05:54;13.10;99.90
25973;DHT22;13765;51.166;4.466;2023-02-15T15:08:38;13.10;99.90
25973;DHT22;13765;51.166;4.466;2023-02-15T15:13:59;13.10;99.90
25973;DHT22;13765;51.166;4.466;2023-02-15T15:19:04;13.30;99.90
25973;DHT22;13765;51.166;4.466;2023-02-15T15:29:42;13.10;99.90
25973;DHT22;13765;51.166;4.466;2023-02-15T15:32:10;13.10;99.90
25973;DHT22;13765;51.166;4.466;2023-02-15T15:49:02;13.00;99.90
25973;DHT22;13765;51.166;4.466;2023-02-15T15:51:32;13.10;99.90
25973;DHT22;13765;51.166;4.466;2023-02-15T15:54:03;13.10;99.90
25973;DHT22;13765;51.166;4.466;2023-02-15T15:56:34;13.00;99.90
25973;DHT22;13765;51.166;4.466;2023-02-15T15:59:14;13.00;99.90
25973;DHT22;13765;51.166;4.466;2023-02-15T16:01:43;13.00;99.90
25973;DHT22;13765;51.166;4.466;2023-02-15T16:04:14;12.90;99.90
25973;DHT22;13765;51.166;4.466;2023-02-15T16:06:50;12.90;99.90
25973;DHT22;13765;51.166;4.466;2023-02-15T16:09:33;12.70;99.90
25973;DHT22;13765;51.166;4.466;2023-02-15T16:12:01;12.60;99.90
25973;DHT22;13765;51.166;4.466;2023-02-15T16:14:41;12.60;99.90
25973;DHT22;13765;51.166;4.466;2023-02-15T16:17:16;12.60;99.90
25973;DHT22;13765;51.166;4.466;2023-02-15T16:19:45;12.50;99.90
25973;DHT22;13765;51.166;4.466;2023-02-15T16:22:15;12.30;99.90
25973;DHT22;13765;51.166;4.466;2023-02-15T16:27:44;12.20;99.90
25973;DHT22;13765;51.166;4.466;2023-02-15T16:30:31;12.20;99.90
25973;DHT22;13765;51.166;4.466;2023-02-15T16:33:07;12.10;99.90
25973;DHT22;13765;51.166;4.466;2023-02-15T16:35:38;12.00;99.90
25973;DHT22;13765;51.166;4.466;2023-02-15T16:38:04;11.90;99.90
25973;DHT22;13765;51.166;4.466;2023-02-15T16:40:48;11.80;99.90
25973;DHT22;13765;51.166;4.466;2023-02-15T16:43:22;11.70;99.90
25973;DHT22;13765;51.166;4.466;2023-02-15T16:45:49;11.70;99.90
25973;DHT22;13765;51.166;4.466;2023-02-15T16:48:23;11.60;99.90
25973;DHT22;13765;51.166;4.466;2023-02-15T16:50:53;11.60;99.90
25973;DHT22;13765;51.166;4.466;2023-02-15T16:53:25;11.50;99.90
25973;DHT22;13765;51.166;4.466;2023-02-15T16:55:57;11.50;99.90
25973;DHT22;13765;51.166;4.466;2023-02-15T16:58:31;11.40;99.90
25973;DHT22;13765;51.166;4.466;2023-02-15T17:01:01;11.50;99.90
25973;DHT22;13765;51.166;4.466;2023-02-15T17:03:28;11.30;99.90
25973;DHT22;13765;51.166;4.466;2023-02-15T17:05:58;11.30;99.90
25973;DHT22;13765;51.166;4.466;2023-02-15T17:08:34;11.20;99.90
25973;DHT22;13765;51.166;4.466;2023-02-15T17:11:13;11.20;99.90
25973;DHT22;13765;51.166;4.466;2023-02-15T17:13:40;11.10;99.90
25973;DHT22;13765;51.166;4.466;2023-02-15T17:16:35;10.90;99.90
25973;DHT22;13765;51.166;4.466;2023-02-15T17:19:08;10.90;99.90
25973;DHT22;13765;51.166;4.466;2023-02-15T17:24:39;10.70;99.90
25973;DHT22;13765;51.166;4.466;2023-02-15T17:27:28;10.80;99.90
25973;DHT22;13765;51.166;4.466;2023-02-15T17:30:01;10.70;99.90
25973;DHT22;13765;51.166;4.466;2023-02-15T17:32:31;10.60;99.90
25973;DHT22;13765;51.166;4.466;2023-02-15T17:39:56;10.50;99.90
25973;DHT22;13765;51.166;4.466;2023-02-15T17:42:25;10.50;99.90
25973;DHT22;13765;51.166;4.466;2023-02-15T17:44:51;10.40;99.90
25973;DHT22;13765;51.166;4.466;2023-02-15T17:47:22;10.30;99.90
25973;DHT22;13765;51.166;4.466;2023-02-15T17:49:52;10.30;99.90
25973;DHT22;13765;51.166;4.466;2023-02-15T17:52:21;10.30;99.90
25973;DHT22;13765;51.166;4.466;2023-02-15T17:54:46;10.20;99.90
25973;DHT22;13765;51.166;4.466;2023-02-15T17:57:31;10.20;99.90
25973;DHT22;13765;51.166;4.466;2023-02-15T17:59:57;10.10;99.90
25973;DHT22;13765;51.166;4.466;2023-02-15T18:02:43;10.10;99.90
25973;DHT22;13765;51.166;4.466;2023-02-15T18:05:28;10.10;99.90
25973;DHT22;13765;51.166;4.466;2023-02-15T18:08:18;10.00;99.90
25973;DHT22;13765;51.166;4.466;2023-02-15T18:11:08;9.90;99.90
25973;DHT22;13765;51.166;4.466;2023-02-15T18:13:52;10.00;99.90
25973;DHT22;13765;51.166;4.466;2023-02-15T18:16:24;10.00;99.90
25973;DHT22;13765;51.166;4.466;2023-02-15T18:18:56;10.00;99.90
25973;DHT22;13765;51.166;4.466;2023-02-15T18:21:25;9.90;99.90
25973;DHT22;13765;51.166;4.466;2023-02-15T18:23:53;9.80;99.90
25973;DHT22;13765;51.166;4.466;2023-02-15T18:26:23;9.70;99.90
25973;DHT22;13765;51.166;4.466;2023-02-15T18:31:15;9.70;99.90
25973;DHT22;13765;51.166;4.466;2023-02-15T18:33:46;9.60;99.90
25973;DHT22;13765;51.166;4.466;2023-02-15T18:36:30;9.60;99.90
25973;DHT22;13765;51.166;4.466;2023-02-15T18:38:58;9.70;99.90
25973;DHT22;13765;51.166;4.466;2023-02-15T18:41:26;9.80;99.90
25973;DHT22;13765;51.166;4.466;2023-02-15T18:43:52;9.80;99.90
25973;DHT22;13765;51.166;4.466;2023-02-15T18:46:21;9.80;99.90
25973;DHT22;13765;51.166;4.466;2023-02-15T18:48:52;9.70;99.90
25973;DHT22;13765;51.166;4.466;2023-02-15T18:51:22;9.80;99.90
25973;DHT22;13765;51.166;4.466;2023-02-15T18:53:50;9.80;99.90
25973;DHT22;13765;51.166;4.466;2023-02-15T18:56:20;9.80;99.90
25973;DHT22;13765;51.166;4.466;2023-02-15T18:58:46;9.70;99.90
25973;DHT22;13765;51.166;4.466;2023-02-15T19:01:14;9.70;99.90
25973;DHT22;13765;51.166;4.466;2023-02-15T19:03:49;9.70;99.90
25973;DHT22;13765;51.166;4.466;2023-02-15T19:06:20;9.70;99.90
25973;DHT22;13765;51.166;4.466;2023-02-15T19:08:50;9.70;99.90
25973;DHT22;13765;51.166;4.466;2023-02-15T19:11:22;9.70;99.90
25973;DHT22;13765;51.166;4.466;2023-02-15T19:13:50;9.60;99.90
25973;DHT22;13765;51.166;4.466;2023-02-15T19:16:34;9.60;99.90
25973;DHT22;13765;51.166;4.466;2023-02-15T19:19:00;9.60;99.90
25973;DHT22;13765;51.166;4.466;2023-02-15T19:21:27;9.60;99.90
25973;DHT22;13765;51.166;4.466;2023-02-15T19:24:06;9.50;99.90
25973;DHT22;13765;51.166;4.466;2023-02-15T19:26:40;9.40;99.90
25973;DHT22;13765;51.166;4.466;2023-02-15T19:29:08;9.40;99.90
25973;DHT22;13765;51.166;4.466;2023-02-15T19:31:37;9.40;99.90
25973;DHT22;13765;51.166;4.466;2023-02-15T19:34:14;9.50;99.90
25973;DHT22;13765;51.166;4.466;2023-02-15T19:36:41;9.50;99.90
25973;DHT22;13765;51.166;4.466;2023-02-15T19:39:23;9.50;99.90
25973;DHT22;13765;51.166;4.466;2023-02-15T19:41:50;9.50;99.90